Time;durP1;ratioP1;P1;durP2;ratioP2;P2;SDS_P1;SDS_P2;PMS_P1;PMS_P2;Temp;Humidity;BMP_temperature;BMP_pressure;BME280_temperature;BME280_humidity;BME280_pressure;Samples;Min_cycle;Max_cycle;Signal;HPM_P1;HPM_P2
2021/04/04 01:28:04;;;;;;;0.50;0.50;;;;;;;7.08;100.00;94104.13;5030838;22;20246;-94
2021/04/04 01:30:39;;;;;;;0.47;0.47;;;;;;;7.14;100.00;94119.06;5003421;28;20223;-93
2021/04/04 01:33:10;;;;;;;0.50;0.50;;;;;;;7.14;100.00;94126.91;5000894;28;20215;-94
2021/04/04 01:35:39;;;;;;;0.70;0.70;;;;;;;7.12;100.00;94147.16;4999215;28;20680;-94
2021/04/04 01:46:13;;;;;;;1.03;0.60;;;;;;;6.42;100.00;94233.03;4988402;28;20232;-94
2021/04/04 01:48:42;;;;;;;0.50;0.50;;;;;;;6.77;100.00;94222.78;4987692;28;20224;-94
2021/04/04 01:51:11;;;;;;;0.50;0.50;;;;;;;6.84;100.00;94221.03;4986910;28;20204;-93
2021/04/04 01:54:07;;;;;;;0.43;0.43;;;;;;;6.93;100.00;94215.69;5000177;28;20232;-94
2021/04/04 01:56:36;;;;;;;0.50;0.50;;;;;;;7.19;100.00;94213.34;4966622;29;20230;-93
2021/04/04 01:59:05;;;;;;;0.50;0.50;;;;;;;7.05;100.00;94242.94;4965086;28;20234;-94
2021/04/04 02:01:33;;;;;;;1.67;0.53;;;;;;;7.04;100.00;94242.13;4961257;29;20202;-95
2021/04/04 02:04:04;;;;;;;0.80;0.80;;;;;;;7.20;100.00;94228.00;4961410;29;20205;-95
2021/04/04 02:06:32;;;;;;;0.50;0.50;;;;;;;7.18;100.00;94211.72;4961462;29;20663;-96
2021/04/04 02:09:01;;;;;;;0.50;0.50;;;;;;;7.42;100.00;94218.34;4961360;29;20218;-95
2021/04/04 02:11:33;;;;;;;0.70;0.70;;;;;;;7.28;100.00;94251.41;4961512;29;20305;-93
2021/04/04 02:14:03;;;;;;;1.20;1.10;;;;;;;7.13;100.00;94300.28;4982583;28;20217;-94
2021/04/04 02:16:32;;;;;;;0.80;0.80;;;;;;;6.97;100.00;94334.50;4985400;28;20228;-95
2021/04/04 02:19:00;;;;;;;0.60;0.60;;;;;;;7.13;100.00;94349.91;4983902;28;20241;-96
2021/04/04 07:35:23;;;;;;;14.13;12.47;;;;;;;7.34;100.00;96093.44;4976128;28;20241;-95
2021/04/04 08:05:43;;;;;;;7.43;6.73;;;;;;;7.42;100.00;96338.50;4949238;29;20234;-94
2021/04/04 08:34:56;;;;;;;9.70;7.83;;;;;;;7.62;100.00;96166.72;4951633;29;20234;-94
2021/04/04 08:37:29;;;;;;;10.43;7.73;;;;;;;7.56;100.00;96191.63;4946600;29;20222;-96
2021/04/04 08:39:58;;;;;;;8.27;7.17;;;;;;;7.58;100.00;96230.72;4946120;29;20211;-95
2021/04/04 08:42:28;;;;;;;8.10;7.30;;;;;;;7.72;100.00;96243.34;4944616;29;20195;-94
2021/04/04 08:45:02;;;;;;;7.67;6.93;;;;;;;7.58;100.00;96231.53;4941050;29;20230;-95
2021/04/04 08:47:32;;;;;;;8.43;7.60;;;;;;;7.72;100.00;96264.28;4937568;29;20206;-94
2021/04/04 08:50:03;;;;;;;12.00;8.30;;;;;;;7.70;100.00;96271.44;4945092;29;20206;-94
2021/04/04 08:52:34;;;;;;;9.10;8.17;;;;;;;7.52;100.00;96299.28;4942201;29;20203;-96
2021/04/04 08:55:01;;;;;;;7.67;6.87;;;;;;;7.44;100.00;96299.97;4941115;29;20199;-94
2021/04/04 08:57:39;;;;;;;8.90;8.00;;;;;;;7.56;100.00;96295.44;4942455;29;20322;-95
2021/04/04 09:00:08;;;;;;;7.93;7.13;;;;;;;7.52;100.00;96299.28;4937992;29;20218;-96
2021/04/04 09:02:45;;;;;;;11.30;9.57;;;;;;;7.57;100.00;96276.16;4937832;29;20663;-96
2021/04/04 09:08:28;;;;;;;16.67;11.87;;;;;;;7.63;100.00;96234.56;4983963;28;20363;-95
2021/04/04 09:10:55;;;;;;;14.17;12.67;;;;;;;7.63;100.00;96257.28;4987788;28;20201;-95
2021/04/04 09:13:23;;;;;;;10.43;8.77;;;;;;;7.71;100.00;96288.78;4985797;28;20252;-94
2021/04/04 09:15:58;;;;;;;8.10;7.33;;;;;;;7.68;100.00;96257.69;4982697;28;20220;-96
2021/04/04 09:18:27;;;;;;;9.20;7.70;;;;;;;7.54;100.00;96281.66;4981531;28;20662;-96
2021/04/04 09:21:05;;;;;;;9.60;8.57;;;;;;;7.61;100.00;96298.44;4979398;28;20271;-96
2021/04/04 09:23:35;;;;;;;8.67;7.73;;;;;;;7.63;100.00;96302.56;4979471;28;20320;-95
2021/04/04 09:26:05;;;;;;;11.23;10.07;;;;;;;7.76;100.00;96306.66;4983199;28;20284;-96
2021/04/04 09:28:36;;;;;;;9.47;8.47;;;;;;;7.74;100.00;96264.16;4985477;28;20201;-95
2021/04/04 09:31:06;;;;;;;8.77;7.97;;;;;;;7.76;100.00;96275.28;4979257;28;20271;-96
2021/04/04 09:33:37;;;;;;;16.03;14.30;;;;;;;7.82;100.00;96288.63;4980173;28;20197;-96
2021/04/04 09:36:07;;;;;;;11.53;9.70;;;;;;;7.81;100.00;96300.06;4982175;28;20197;-95
2021/04/04 09:38:38;;;;;;;12.70;10.77;;;;;;;7.72;100.00;96285.19;4982356;28;20197;-96
2021/04/04 09:47:14;;;;;;;20.33;18.23;;;;;;;7.74;100.00;96298.97;4889199;29;20213;-96
2021/04/04 09:49:46;;;;;;;15.57;13.73;;;;;;;7.74;100.00;96317.28;4881324;29;20224;-96
2021/04/04 09:55:47;;;;;;;15.73;12.10;;;;;;;7.84;100.00;96319.91;4854603;29;20281;-96
2021/04/04 09:58:30;;;;;;;19.60;17.17;;;;;;;7.69;100.00;96314.28;4870629;29;20229;-96
2021/04/04 10:00:58;;;;;;;14.40;13.10;;;;;;;7.71;100.00;96314.94;4873948;29;20205;-96
2021/04/04 10:03:25;;;;;;;18.73;16.73;;;;;;;7.68;100.00;96323.06;4873731;29;20209;-96
2021/04/04 10:05:53;;;;;;;18.73;16.00;;;;;;;7.89;100.00;96343.03;4872299;29;20202;-95
2021/04/04 10:08:21;;;;;;;17.83;16.03;;;;;;;7.95;100.00;96358.16;4868251;29;20217;-94
2021/04/04 10:10:51;;;;;;;18.13;15.03;;;;;;;8.10;100.00;96347.13;4865619;29;20214;-94
2021/04/04 10:13:23;;;;;;;17.47;12.97;;;;;;;8.06;100.00;96303.84;4865750;29;20266;-96
2021/04/04 10:15:52;;;;;;;13.07;11.77;;;;;;;8.11;100.00;96277.28;4867621;29;20692;-95
2021/04/04 10:21:00;;;;;;;13.20;11.83;;;;;;;7.73;100.00;96265.94;4971932;28;20217;-94
2021/04/04 10:23:31;;;;;;;13.13;11.80;;;;;;;7.79;100.00;96294.16;4967804;29;20198;-94
2021/04/04 10:31:11;;;;;;;16.33;14.63;;;;;;;8.11;100.00;96306.06;4959824;28;20241;-96
2021/04/04 10:33:38;;;;;;;13.33;11.70;;;;;;;8.27;100.00;96316.75;4966081;29;20202;-95
2021/04/04 10:36:14;;;;;;;15.20;13.77;;;;;;;8.27;100.00;96295.78;4968118;29;20209;-96
2021/04/04 10:38:41;;;;;;;17.23;15.50;;;;;;;8.31;100.00;96318.13;4961121;29;20205;-94
2021/04/04 10:41:12;;;;;;;21.67;17.30;;;;;;;8.22;100.00;96298.03;4965300;29;20209;-94
2021/04/04 10:43:40;;;;;;;20.20;16.00;;;;;;;8.27;100.00;96321.16;4961373;29;20205;-94
2021/04/04 10:46:21;;;;;;;19.00;15.93;;;;;;;8.36;100.00;96340.44;4959986;29;20241;-96
2021/04/04 10:48:50;;;;;;;14.60;12.40;;;;;;;8.14;100.00;96338.97;4961662;29;20209;-95
2021/04/04 15:22:47;;;;;;;5.83;4.73;;;;;;;5.78;100.00;96343.94;5205149;23;20232;-94
